Pagrindinis puslapis
METAR-TAF:

METAR-TAF

Oro uostai :

Incirlik, Turkija

platuma: 37-00N, ilguma: 035-25E, Aukštis: 73 m

Dabartinis oras

Ataskaita buvo paskelbta 35 minutes, ne 17:20 UTC
Vėjas 3 kt iš Rytų
Temperatūra 26°C
Drėgmė 61%
Slėgis 1008 hPa
Matomumas 10 km arba daugiau
nėra debesų žemiau 1500 m ir nėra kamuolinių lietaus debesų

METAR: LTAG 151720Z 08003KT CAVOK 26/18 Q1008 NOSIG

Laikas: 20:55 (17:55 UTC)

Prognozė

Ataskaita buvo paskelbta 1 valandą ir 15 minutes, ne 16:40 UTC
Prognozė galioja nuo 15 metu 18 UTC su 16 metu 18 UTC
Vėjas 2 kt nuo kintamojo kryptimis
Matomumas 10 km arba daugiau
nėra debesų žemiau 1500 m ir nėra kamuolinių lietaus debesų
Tapsmas
nuo 16 metu 08 UTC su 16 metu 12 UTC
Vėjas 15 kt iš Pietų/Pietvakarių

TAF: LTAG 151640Z 1518/1618 VRB02KT CAVOK BECMG 1608/1612 21015KT

Orai ataskaitas ir orų prognozės (METAR, TAF).

turimą stotys yra geltonos ir raudonos taškus žemėlapyje.

Perkelti pele per norėdami pamatyti stoties vardą.

Tada spustelėkite, norėdami matyti oro stebėjimo ir prognozės.

Norėdami pakeisti žemėlapį: spustelėkite ant žalios mygtukų su juodo kryžiaus žemyn,; žalią mygtuką su brūkšneliu, jei norite nutolinti; arba žalių rodyklių gretimoms žemėlapius.


METAR-TAF: